Bauang Weathercam more information Bauang Weathercam


Thunder radar more information blitzortung!


Rain radar more information rain snow radar


Visit other webcamsites:

Livecam

Youtube live stream



Nearby METAR Reports

   
RPLC - Angeles/Pampanga, Philippines
Distance from station: S 165 km
Updated: 06-07-2021 15:00
NOT Current
Mostly Cloudy  
Mostly Cloudy  
   Wind: South 6.2 m/s
Wind: South 6.2 m/s
Temperature: 32°C
Heat Index: 38°C
Dew Point: 24°C
Humidity: 63%
Barometer: 1007 hPa
Clouds: Mostly Cloudy
Visibility: 9 km
Cloud details: Few Clouds 609.6 m,
Mostly Cloudy 9144 m
RPLC 060700Z 18012KT 9000 FEW020 BKN300 32/24 Q1007 NOSIG RMK A2974
RPLI - Laoag Intl(Ph-Ar, Philippines
Distance from station: N 172 km
Updated: 27-07-2021 02:00
NOT Current
Mist, Overcast  
Mist, Overcast  
   Wind: SSW 5.1 m/s
Wind: SSW 5.1 m/s
Temperature: 27°C
Heat Index: 31°C
Dew Point: 25°C
Humidity: 89%
Barometer: 1000 hPa
Clouds: Overcast
Visibility: 5 km
Cloud details: Mostly Cloudy 548.6 m,
Overcast 2743.2 m
RPLI 261800Z 20010KT 5000 BR BKN018 OVC090 27/25 Q1000 RETSRA RMK A2953
RPLB - Olongapo/Subic, Philippines
Distance from station: S 203 km
Updated: 27-07-2021 04:00
Light Rain, Overcast  
Light Rain, Overcast  
   Wind: SW 9.8 m/s
Wind: SW 9.8 m/s
Temperature: 28°C
Heat Index: 33°C
Dew Point: 26°C
Humidity: 89%
Barometer: 1003 hPa
Clouds: Overcast
Visibility: 9 km
Cloud details: Partly Cloudy 548.6 m,
Overcast 2438.4 m
RPLB 262000Z 22019KT 9000 -RA SCT018 OVC080 28/26 Q1003 RMK A2962
RPLL - Ninoy Aquino Int, Philippines
Distance from station: SSE 246 km
Updated: 27-07-2021 04:00
Mostly Cloudy  
Mostly Cloudy  
   Wind: WSW 4.1 m/s
Wind: WSW 4.1 m/s
Temperature: 29°C
Heat Index: 34°C
Dew Point: 25°C
Humidity: 79%
Barometer: 1002 hPa
Clouds: Mostly Cloudy
Visibility: More than 10 km
Cloud details: Partly Cloudy 762 m,
Mostly Cloudy 2743.2 m
RPLL 262000Z 24008KT 210V270 9999 SCT025 BKN090 29/25 Q1002 NOSIG RMK A2958
RPMR - Romblon/Tablas I, Philippines
Distance from station: SSE 498 km
Updated: 06-07-2021 15:00
NOT Current
Nearby Showers, Mostly Cloudy  
Nearby Showers, Mostly Cloudy  
   Wind: South 4.6 m/s
Wind: South 4.6 m/s
Temperature: 31°C
Heat Index: 36°C
Dew Point: 23°C
Humidity: 62%
Barometer: 1007 hPa
Clouds: Mostly Cloudy
Visibility: More than 10 km
Cloud details: Few Clouds 548.6 m,
Mostly Cloudy 2438.4 m
RPMR 060700Z 17009KT 110V180 9999 VCSH FEW018CB BKN080 31/23 Q1007 RMK A2974 CB NNW VCSH NNW SW
RPVP - Puerto Princesa, Philippines
Distance from station: SSW 778 km
Updated: 06-07-2021 15:00
NOT Current
Overcast  
Overcast  
   Wind: South 20.6 m/s
Wind: South 20.6 m/s
Temperature: 28°C
Heat Index: 32°C
Dew Point: 24°C
Humidity: 79%
Barometer: 1007 hPa
Clouds: Overcast
Visibility: More than 10 km
Cloud details: Partly Cloudy 579.1 m,
Overcast 2438.4 m
RPVP 060700Z 18040KT 9999 SCT019 OVC080 28/24 Q1007 RMK A2974
RPVM - Mactan-Cebu, Philippines
Distance from station: SSE 800 km
Updated: 27-07-2021 04:00
Mostly Cloudy  
Mostly Cloudy  
   Wind: WSW 3.1 m/s
Wind: WSW 3.1 m/s
Temperature: 27°C
Heat Index: 30°C
Dew Point: 24°C
Humidity: 84%
Barometer: 1006 hPa
Clouds: Mostly Cloudy
Visibility: More than 10 km
Cloud details: Few Clouds 609.6 m,
Mostly Cloudy 9144 m
RPVM 262000Z 24006KT 9999 FEW020 BKN300 27/24 Q1006 RMK A2971
RPMZ - Zamboanga (civ/A, Philippines
Distance from station: S 1090 km
Updated: 27-07-2021 02:00
NOT Current
Mostly Cloudy  
Mostly Cloudy  
   Wind: WNW 1.5 m/s
Wind: WNW 1.5 m/s
Temperature: 27°C
Heat Index: 30°C
Dew Point: 24°C
Humidity: 84%
Barometer: 1008 hPa
Clouds: Mostly Cloudy
Visibility: More than 10 km
Cloud details: Few Clouds 518.2 m,
Mostly Cloudy 9144 m
RPMZ 261800Z 29003KT 9999 FEW017 BKN300 27/24 Q1008 RMK A2977
RPMD - Davao/Francisco, Philippines
Distance from station: SSE 1198 km
Updated: 27-07-2021 04:00
Mostly Cloudy  
Mostly Cloudy  
   Wind: varies 1 m/s
Wind: varies 1 m/s
Temperature: 25°C
Dew Point: 25°C
Humidity: 100%
Barometer: 1007 hPa
Clouds: Mostly Cloudy
Visibility: More than 10 km
Cloud details: Few Clouds 487.7 m,
Mostly Cloudy 8839.2 m
RPMD 262000Z VRB02KT 9999 FEW016 BKN290 25/25 Q1007 RMK A2974

Script developed by  Saratoga-weather.org Adapted for the template by  Weerstation Leuven

You find our weather info also at:

Ambient Weather

WeatherCloud

Philippine Atmospheric, Geophysical and Astronomical Services Administration